sensor_id;sensor_type;location;lat;lon;timestamp;pressure;altitude;pressure_sealevel;temperature;humidity
62948;BME280;51940;52.126;-0.994;2023-02-13T00:01:11;102506.37;;;6.36;100.00
62948;BME280;51940;52.126;-0.994;2023-02-13T00:03:37;102504.07;;;6.37;100.00
62948;BME280;51940;52.126;-0.994;2023-02-13T00:06:02;102502.48;;;6.37;100.00
62948;BME280;51940;52.126;-0.994;2023-02-13T00:08:28;102500.70;;;6.37;100.00
62948;BME280;51940;52.126;-0.994;2023-02-13T00:10:53;102499.81;;;6.37;100.00
62948;BME280;51940;52.126;-0.994;2023-02-13T00:13:18;102500.01;;;6.37;100.00
62948;BME280;51940;52.126;-0.994;2023-02-13T00:15:44;102502.47;;;6.36;100.00
62948;BME280;51940;52.126;-0.994;2023-02-13T00:18:09;102504.61;;;6.37;100.00
62948;BME280;51940;52.126;-0.994;2023-02-13T00:20:34;102501.60;;;6.37;100.00
62948;BME280;51940;52.126;-0.994;2023-02-13T00:23:00;102503.89;;;6.37;100.00
62948;BME280;51940;52.126;-0.994;2023-02-13T00:25:25;102500.88;;;6.36;100.00
62948;BME280;51940;52.126;-0.994;2023-02-13T00:27:51;102499.80;;;6.36;100.00
62948;BME280;51940;52.126;-0.994;2023-02-13T00:30:18;102497.80;;;6.34;100.00
62948;BME280;51940;52.126;-0.994;2023-02-13T00:32:45;102493.84;;;6.32;100.00
62948;BME280;51940;52.126;-0.994;2023-02-13T00:35:11;102490.80;;;6.32;100.00
62948;BME280;51940;52.126;-0.994;2023-02-13T00:37:36;102486.53;;;6.31;100.00
62948;BME280;51940;52.126;-0.994;2023-02-13T00:40:02;102488.48;;;6.30;100.00
62948;BME280;51940;52.126;-0.994;2023-02-13T00:42:27;102489.33;;;6.29;100.00
62948;BME280;51940;52.126;-0.994;2023-02-13T00:44:53;102487.00;;;6.28;100.00
62948;BME280;51940;52.126;-0.994;2023-02-13T00:47:19;102484.69;;;6.28;100.00
62948;BME280;51940;52.126;-0.994;2023-02-13T00:49:45;102485.23;;;6.28;100.00
62948;BME280;51940;52.126;-0.994;2023-02-13T00:52:11;102483.97;;;6.27;100.00
62948;BME280;51940;52.126;-0.994;2023-02-13T00:54:36;102479.01;;;6.27;100.00
62948;BME280;51940;52.126;-0.994;2023-02-13T00:57:02;102479.72;;;6.27;100.00
62948;BME280;51940;52.126;-0.994;2023-02-13T00:59:27;102477.39;;;6.26;100.00
62948;BME280;51940;52.126;-0.994;2023-02-13T01:01:53;102480.92;;;6.26;100.00
62948;BME280;51940;52.126;-0.994;2023-02-13T01:04:18;102482.36;;;6.27;100.00
62948;BME280;51940;52.126;-0.994;2023-02-13T01:06:44;102477.58;;;6.27;100.00
62948;BME280;51940;52.126;-0.994;2023-02-13T01:09:09;102481.64;;;6.26;100.00
62948;BME280;51940;52.126;-0.994;2023-02-13T01:11:35;102471.71;;;6.26;100.00
62948;BME280;51940;52.126;-0.994;2023-02-13T01:14:01;102477.05;;;6.27;100.00
62948;BME280;51940;52.126;-0.994;2023-02-13T01:16:26;102477.58;;;6.27;100.00
62948;BME280;51940;52.126;-0.994;2023-02-13T01:18:52;102472.61;;;6.27;100.00
62948;BME280;51940;52.126;-0.994;2023-02-13T01:21:19;102471.20;;;6.27;100.00
62948;BME280;51940;52.126;-0.994;2023-02-13T01:23:45;102468.91;;;6.28;100.00
62948;BME280;51940;52.126;-0.994;2023-02-13T01:26:19;102467.12;;;6.27;100.00
62948;BME280;51940;52.126;-0.994;2023-02-13T01:28:45;102462.34;;;6.27;100.00
62948;BME280;51940;52.126;-0.994;2023-02-13T01:31:11;102461.79;;;6.26;100.00
62948;BME280;51940;52.126;-0.994;2023-02-13T01:33:36;102461.07;;;6.26;100.00
62948;BME280;51940;52.126;-0.994;2023-02-13T01:36:06;102461.96;;;6.26;100.00
62948;BME280;51940;52.126;-0.994;2023-02-13T01:38:32;102461.26;;;6.26;100.00
62948;BME280;51940;52.126;-0.994;2023-02-13T01:40:57;102458.92;;;6.25;100.00
62948;BME280;51940;52.126;-0.994;2023-02-13T01:43:23;102455.14;;;6.23;100.00
62948;BME280;51940;52.126;-0.994;2023-02-13T01:45:52;102455.85;;;6.23;100.00
62948;BME280;51940;52.126;-0.994;2023-02-13T01:48:22;102454.08;;;6.23;100.00
62948;BME280;51940;52.126;-0.994;2023-02-13T01:51:00;102453.35;;;6.22;100.00
62948;BME280;51940;52.126;-0.994;2023-02-13T01:53:33;102453.17;;;6.22;100.00
62948;BME280;51940;52.126;-0.994;2023-02-13T01:56:33;102453.70;;;6.22;100.00
62948;BME280;51940;52.126;-0.994;2023-02-13T01:59:06;102454.59;;;6.22;100.00
62948;BME280;51940;52.126;-0.994;2023-02-13T02:01:33;102454.05;;;6.21;100.00
62948;BME280;51940;52.126;-0.994;2023-02-13T02:04:09;102451.92;;;6.22;100.00
62948;BME280;51940;52.126;-0.994;2023-02-13T02:06:42;102453.18;;;6.22;100.00
62948;BME280;51940;52.126;-0.994;2023-02-13T02:09:19;102449.98;;;6.22;100.00
62948;BME280;51940;52.126;-0.994;2023-02-13T02:14:27;102447.66;;;6.21;100.00
62948;BME280;51940;52.126;-0.994;2023-02-13T02:16:53;102447.28;;;6.20;100.00
62948;BME280;51940;52.126;-0.994;2023-02-13T02:22:00;102444.45;;;6.20;100.00
62948;BME280;51940;52.126;-0.994;2023-02-13T02:24:45;102444.81;;;6.20;100.00
62948;BME280;51940;52.126;-0.994;2023-02-13T02:30:15;102449.77;;;6.20;100.00
62948;BME280;51940;52.126;-0.994;2023-02-13T02:35:33;102448.33;;;6.19;100.00
62948;BME280;51940;52.126;-0.994;2023-02-13T02:45:53;102439.59;;;6.17;100.00
62948;BME280;51940;52.126;-0.994;2023-02-13T02:48:32;102434.92;;;6.15;100.00
62948;BME280;51940;52.126;-0.994;2023-02-13T02:51:29;102434.69;;;6.13;100.00
62948;BME280;51940;52.126;-0.994;2023-02-13T02:57:05;102429.65;;;6.10;100.00
62948;BME280;51940;52.126;-0.994;2023-02-13T02:59:33;102428.74;;;6.09;100.00
62948;BME280;51940;52.126;-0.994;2023-02-13T03:02:20;102423.76;;;6.08;100.00
62948;BME280;51940;52.126;-0.994;2023-02-13T03:05:16;102424.82;;;6.08;100.00
62948;BME280;51940;52.126;-0.994;2023-02-13T03:08:02;102424.63;;;6.08;100.00
62948;BME280;51940;52.126;-0.994;2023-02-13T03:10:32;102423.75;;;6.08;100.00
62948;BME280;51940;52.126;-0.994;2023-02-13T03:15:56;102421.36;;;6.06;100.00
62948;BME280;51940;52.126;-0.994;2023-02-13T03:18:45;102420.13;;;6.06;100.00
62948;BME280;51940;52.126;-0.994;2023-02-13T03:21:54;102415.51;;;6.05;100.00
62948;BME280;51940;52.126;-0.994;2023-02-13T03:24:46;102417.09;;;6.04;100.00
62948;BME280;51940;52.126;-0.994;2023-02-13T03:35:47;102418.77;;;6.01;100.00
62948;BME280;51940;52.126;-0.994;2023-02-13T03:41:07;102419.81;;;6.00;100.00
62948;BME280;51940;52.126;-0.994;2023-02-13T03:44:05;102415.54;;;6.00;100.00
62948;BME280;51940;52.126;-0.994;2023-02-13T03:46:39;102415.83;;;5.97;100.00
62948;BME280;51940;52.126;-0.994;2023-02-13T03:49:10;102411.92;;;5.97;100.00
62948;BME280;51940;52.126;-0.994;2023-02-13T03:51:58;102413.17;;;5.97;100.00
62948;BME280;51940;52.126;-0.994;2023-02-13T03:54:32;102413.70;;;5.98;100.00
62948;BME280;51940;52.126;-0.994;2023-02-13T03:57:19;102411.03;;;5.97;100.00
62948;BME280;51940;52.126;-0.994;2023-02-13T04:00:08;102411.71;;;5.96;100.00
62948;BME280;51940;52.126;-0.994;2023-02-13T04:02:40;102410.11;;;5.96;100.00
62948;BME280;51940;52.126;-0.994;2023-02-13T04:05:28;102409.90;;;5.94;100.00
62948;BME280;51940;52.126;-0.994;2023-02-13T04:07:54;102411.83;;;5.93;100.00
62948;BME280;51940;52.126;-0.994;2023-02-13T04:10:20;102413.42;;;5.93;100.00
62948;BME280;51940;52.126;-0.994;2023-02-13T04:13:02;102408.27;;;5.93;100.00
62948;BME280;51940;52.126;-0.994;2023-02-13T04:15:49;102408.62;;;5.92;100.00
62948;BME280;51940;52.126;-0.994;2023-02-13T04:18:20;102409.84;;;5.92;100.00
62948;BME280;51940;52.126;-0.994;2023-02-13T04:20:47;102410.02;;;5.91;100.00
62948;BME280;51940;52.126;-0.994;2023-02-13T04:23:14;102410.55;;;5.91;100.00
62948;BME280;51940;52.126;-0.994;2023-02-13T04:25:42;102411.21;;;5.90;100.00
62948;BME280;51940;52.126;-0.994;2023-02-13T04:28:08;102413.64;;;5.89;100.00
62948;BME280;51940;52.126;-0.994;2023-02-13T04:30:34;102411.83;;;5.88;100.00
62948;BME280;51940;52.126;-0.994;2023-02-13T04:32:59;102413.55;;;5.86;100.00
62948;BME280;51940;52.126;-0.994;2023-02-13T04:35:24;102410.71;;;5.86;100.00
62948;BME280;51940;52.126;-0.994;2023-02-13T04:37:50;102407.87;;;5.86;100.00
62948;BME280;51940;52.126;-0.994;2023-02-13T04:40:15;102401.14;;;5.86;100.00
62948;BME280;51940;52.126;-0.994;2023-02-13T04:42:41;102400.95;;;5.85;100.00
62948;BME280;51940;52.126;-0.994;2023-02-13T04:45:06;102403.77;;;5.85;100.00
62948;BME280;51940;52.126;-0.994;2023-02-13T04:47:32;102403.23;;;5.84;100.00
62948;BME280;51940;52.126;-0.994;2023-02-13T04:49:57;102402.65;;;5.82;100.00
62948;BME280;51940;52.126;-0.994;2023-02-13T04:52:22;102403.86;;;5.82;100.00
62948;BME280;51940;52.126;-0.994;2023-02-13T04:54:48;102403.98;;;5.80;100.00
62948;BME280;51940;52.126;-0.994;2023-02-13T04:57:13;102404.48;;;5.79;100.00
62948;BME280;51940;52.126;-0.994;2023-02-13T04:59:39;102402.34;;;5.78;100.00
62948;BME280;51940;52.126;-0.994;2023-02-13T05:02:05;102396.98;;;5.76;100.00
62948;BME280;51940;52.126;-0.994;2023-02-13T05:04:30;102391.65;;;5.76;100.00
62948;BME280;51940;52.126;-0.994;2023-02-13T05:06:56;102392.13;;;5.74;100.00
62948;BME280;51940;52.126;-0.994;2023-02-13T05:09:21;102389.42;;;5.72;100.00
62948;BME280;51940;52.126;-0.994;2023-02-13T05:11:50;102388.86;;;5.71;100.00
62948;BME280;51940;52.126;-0.994;2023-02-13T05:14:15;102388.32;;;5.71;100.00
62948;BME280;51940;52.126;-0.994;2023-02-13T05:16:41;102387.41;;;5.70;100.00
62948;BME280;51940;52.126;-0.994;2023-02-13T05:19:06;102383.69;;;5.70;100.00
62948;BME280;51940;52.126;-0.994;2023-02-13T05:21:32;102390.23;;;5.69;100.00
62948;BME280;51940;52.126;-0.994;2023-02-13T05:24:15;102386.85;;;5.69;100.00
62948;BME280;51940;52.126;-0.994;2023-02-13T05:26:41;102383.48;;;5.69;100.00
62948;BME280;51940;52.126;-0.994;2023-02-13T05:29:08;102387.18;;;5.68;100.00
62948;BME280;51940;52.126;-0.994;2023-02-13T05:31:44;102386.80;;;5.66;100.00
62948;BME280;51940;52.126;-0.994;2023-02-13T05:34:09;102384.11;;;5.65;100.00
62948;BME280;51940;52.126;-0.994;2023-02-13T05:36:35;102384.80;;;5.64;100.00
62948;BME280;51940;52.126;-0.994;2023-02-13T05:39:00;102382.77;;;5.62;100.00
62948;BME280;51940;52.126;-0.994;2023-02-13T05:41:26;102384.86;;;5.60;100.00
62948;BME280;51940;52.126;-0.994;2023-02-13T05:43:51;102391.58;;;5.60;100.00
62948;BME280;51940;52.126;-0.994;2023-02-13T05:46:16;102396.88;;;5.60;100.00
62948;BME280;51940;52.126;-0.994;2023-02-13T05:48:42;102403.79;;;5.60;100.00
62948;BME280;51940;52.126;-0.994;2023-02-13T05:51:07;102402.91;;;5.60;100.00
62948;BME280;51940;52.126;-0.994;2023-02-13T05:53:33;102402.89;;;5.59;100.00
62948;BME280;51940;52.126;-0.994;2023-02-13T05:56:00;102405.52;;;5.58;100.00
62948;BME280;51940;52.126;-0.994;2023-02-13T05:58:27;102408.67;;;5.57;100.00
62948;BME280;51940;52.126;-0.994;2023-02-13T06:00:55;102412.72;;;5.56;100.00
62948;BME280;51940;52.126;-0.994;2023-02-13T06:03:21;102411.30;;;5.56;100.00
62948;BME280;51940;52.126;-0.994;2023-02-13T06:05:47;102411.25;;;5.55;100.00
62948;BME280;51940;52.126;-0.994;2023-02-13T06:08:12;102411.06;;;5.55;100.00
62948;BME280;51940;52.126;-0.994;2023-02-13T06:10:37;102409.83;;;5.55;100.00
62948;BME280;51940;52.126;-0.994;2023-02-13T06:13:03;102408.20;;;5.54;100.00
62948;BME280;51940;52.126;-0.994;2023-02-13T06:15:28;102408.92;;;5.54;100.00
62948;BME280;51940;52.126;-0.994;2023-02-13T06:17:53;102408.23;;;5.54;100.00
62948;BME280;51940;52.126;-0.994;2023-02-13T06:20:19;102410.16;;;5.55;100.00
62948;BME280;51940;52.126;-0.994;2023-02-13T06:22:50;102404.35;;;5.55;100.00
62948;BME280;51940;52.126;-0.994;2023-02-13T06:25:15;102400.41;;;5.54;100.00
62948;BME280;51940;52.126;-0.994;2023-02-13T06:27:41;102394.53;;;5.52;100.00
62948;BME280;51940;52.126;-0.994;2023-02-13T06:30:07;102399.65;;;5.52;100.00
62948;BME280;51940;52.126;-0.994;2023-02-13T06:32:32;102398.55;;;5.50;100.00
62948;BME280;51940;52.126;-0.994;2023-02-13T06:34:58;102397.98;;;5.49;100.00
62948;BME280;51940;52.126;-0.994;2023-02-13T06:37:23;102395.62;;;5.47;100.00
62948;BME280;51940;52.126;-0.994;2023-02-13T06:39:48;102394.54;;;5.46;100.00
62948;BME280;51940;52.126;-0.994;2023-02-13T06:42:14;102387.95;;;5.45;100.00
62948;BME280;51940;52.126;-0.994;2023-02-13T06:44:39;102384.55;;;5.44;100.00
62948;BME280;51940;52.126;-0.994;2023-02-13T06:47:04;102387.52;;;5.42;100.00
62948;BME280;51940;52.126;-0.994;2023-02-13T06:49:30;102389.63;;;5.42;100.00
62948;BME280;51940;52.126;-0.994;2023-02-13T06:51:55;102390.99;;;5.40;100.00
62948;BME280;51940;52.126;-0.994;2023-02-13T06:54:21;102393.20;;;5.37;100.00
62948;BME280;51940;52.126;-0.994;2023-02-13T06:56:46;102399.35;;;5.36;100.00
62948;BME280;51940;52.126;-0.994;2023-02-13T06:59:11;102399.66;;;5.34;100.00
62948;BME280;51940;52.126;-0.994;2023-02-13T07:01:37;102402.30;;;5.34;100.00
62948;BME280;51940;52.126;-0.994;2023-02-13T07:04:02;102399.84;;;5.33;100.00
62948;BME280;51940;52.126;-0.994;2023-02-13T07:06:27;102401.98;;;5.35;100.00
62948;BME280;51940;52.126;-0.994;2023-02-13T07:08:53;102401.45;;;5.35;100.00
62948;BME280;51940;52.126;-0.994;2023-02-13T07:11:21;102403.91;;;5.34;100.00
62948;BME280;51940;52.126;-0.994;2023-02-13T07:13:47;102404.98;;;5.34;100.00
62948;BME280;51940;52.126;-0.994;2023-02-13T07:16:13;102405.52;;;5.34;100.00
62948;BME280;51940;52.126;-0.994;2023-02-13T07:18:39;102408.73;;;5.35;100.00
62948;BME280;51940;52.126;-0.994;2023-02-13T07:21:05;102410.15;;;5.36;100.00
62948;BME280;51940;52.126;-0.994;2023-02-13T07:23:30;102419.65;;;5.34;100.00
62948;BME280;51940;52.126;-0.994;2023-02-13T07:25:59;102413.41;;;5.32;100.00
62948;BME280;51940;52.126;-0.994;2023-02-13T07:28:26;102411.08;;;5.31;100.00
62948;BME280;51940;52.126;-0.994;2023-02-13T07:30:51;102407.28;;;5.29;100.00
62948;BME280;51940;52.126;-0.994;2023-02-13T07:33:17;102405.79;;;5.26;100.00
62948;BME280;51940;52.126;-0.994;2023-02-13T07:35:50;102410.13;;;5.23;100.00
62948;BME280;51940;52.126;-0.994;2023-02-13T07:38:16;102408.78;;;5.20;100.00
62948;BME280;51940;52.126;-0.994;2023-02-13T07:40:42;102414.58;;;5.18;100.00
62948;BME280;51940;52.126;-0.994;2023-02-13T07:43:08;102419.52;;;5.18;100.00
62948;BME280;51940;52.126;-0.994;2023-02-13T07:45:34;102418.65;;;5.18;100.00
62948;BME280;51940;52.126;-0.994;2023-02-13T07:47:59;102416.36;;;5.19;100.00
62948;BME280;51940;52.126;-0.994;2023-02-13T07:50:25;102415.83;;;5.19;100.00
62948;BME280;51940;52.126;-0.994;2023-02-13T07:52:59;102416.34;;;5.18;100.00
62948;BME280;51940;52.126;-0.994;2023-02-13T07:55:25;102414.38;;;5.18;100.00
62948;BME280;51940;52.126;-0.994;2023-02-13T07:57:51;102413.51;;;5.18;100.00
62948;BME280;51940;52.126;-0.994;2023-02-13T08:00:17;102412.31;;;5.20;100.00
62948;BME280;51940;52.126;-0.994;2023-02-13T08:02:43;102413.94;;;5.21;100.00
62948;BME280;51940;52.126;-0.994;2023-02-13T08:05:09;102411.15;;;5.22;100.00
62948;BME280;51940;52.126;-0.994;2023-02-13T08:07:35;102411.87;;;5.22;100.00
62948;BME280;51940;52.126;-0.994;2023-02-13T08:10:00;102413.48;;;5.22;100.00
62948;BME280;51940;52.126;-0.994;2023-02-13T08:12:44;102410.64;;;5.22;100.00
62948;BME280;51940;52.126;-0.994;2023-02-13T08:15:12;102407.29;;;5.23;100.00
62948;BME280;51940;52.126;-0.994;2023-02-13T08:17:37;102410.67;;;5.23;100.00
62948;BME280;51940;52.126;-0.994;2023-02-13T08:20:04;102411.56;;;5.24;100.00
62948;BME280;51940;52.126;-0.994;2023-02-13T08:22:33;102416.02;;;5.25;100.00
62948;BME280;51940;52.126;-0.994;2023-02-13T08:24:59;102419.25;;;5.27;100.00
62948;BME280;51940;52.126;-0.994;2023-02-13T08:27:24;102418.56;;;5.27;100.00
62948;BME280;51940;52.126;-0.994;2023-02-13T08:29:50;102415.19;;;5.27;100.00
62948;BME280;51940;52.126;-0.994;2023-02-13T08:32:17;102415.58;;;5.28;100.00
62948;BME280;51940;52.126;-0.994;2023-02-13T08:34:42;102413.51;;;5.30;100.00
62948;BME280;51940;52.126;-0.994;2023-02-13T08:37:07;102409.33;;;5.31;100.00
62948;BME280;51940;52.126;-0.994;2023-02-13T08:39:33;102408.46;;;5.32;100.00
62948;BME280;51940;52.126;-0.994;2023-02-13T08:41:58;102407.26;;;5.33;100.00
62948;BME280;51940;52.126;-0.994;2023-02-13T08:44:23;102409.09;;;5.36;100.00
62948;BME280;51940;52.126;-0.994;2023-02-13T08:46:49;102410.35;;;5.37;100.00
62948;BME280;51940;52.126;-0.994;2023-02-13T08:49:14;102410.42;;;5.39;100.00
62948;BME280;51940;52.126;-0.994;2023-02-13T08:51:40;102407.46;;;5.40;100.00
62948;BME280;51940;52.126;-0.994;2023-02-13T08:54:05;102405.56;;;5.42;100.00
62948;BME280;51940;52.126;-0.994;2023-02-13T08:56:30;102403.88;;;5.45;100.00
62948;BME280;51940;52.126;-0.994;2023-02-13T08:58:56;102405.11;;;5.50;100.00
62948;BME280;51940;52.126;-0.994;2023-02-13T09:01:21;102401.20;;;5.56;100.00
62948;BME280;51940;52.126;-0.994;2023-02-13T09:03:48;102396.96;;;5.63;100.00
62948;BME280;51940;52.126;-0.994;2023-02-13T09:06:14;102392.34;;;5.69;100.00
62948;BME280;51940;52.126;-0.994;2023-02-13T09:08:40;102391.59;;;5.73;100.00
62948;BME280;51940;52.126;-0.994;2023-02-13T09:11:06;102390.09;;;5.77;100.00
62948;BME280;51940;52.126;-0.994;2023-02-13T09:13:32;102384.98;;;5.78;100.00
62948;BME280;51940;52.126;-0.994;2023-02-13T09:16:00;102378.70;;;5.81;100.00
62948;BME280;51940;52.126;-0.994;2023-02-13T09:18:26;102378.82;;;5.86;100.00
62948;BME280;51940;52.126;-0.994;2023-02-13T09:20:59;102376.91;;;5.92;100.00
62948;BME280;51940;52.126;-0.994;2023-02-13T09:23:25;102377.30;;;6.00;100.00
62948;BME280;51940;52.126;-0.994;2023-02-13T09:25:50;102378.89;;;6.07;100.00
62948;BME280;51940;52.126;-0.994;2023-02-13T09:28:16;102371.75;;;6.11;100.00
62948;BME280;51940;52.126;-0.994;2023-02-13T09:30:41;102372.41;;;6.16;100.00
62948;BME280;51940;52.126;-0.994;2023-02-13T09:33:10;102367.02;;;6.20;100.00
62948;BME280;51940;52.126;-0.994;2023-02-13T09:35:37;102364.71;;;6.27;100.00
62948;BME280;51940;52.126;-0.994;2023-02-13T09:38:05;102365.42;;;6.34;100.00
62948;BME280;51940;52.126;-0.994;2023-02-13T09:40:35;102368.08;;;6.41;100.00
62948;BME280;51940;52.126;-0.994;2023-02-13T09:43:30;102366.46;;;6.48;100.00
62948;BME280;51940;52.126;-0.994;2023-02-13T09:46:36;102364.00;;;6.56;100.00
62948;BME280;51940;52.126;-0.994;2023-02-13T09:49:08;102362.05;;;6.63;100.00
62948;BME280;51940;52.126;-0.994;2023-02-13T09:51:36;102363.30;;;6.71;100.00
62948;BME280;51940;52.126;-0.994;2023-02-13T09:54:05;102369.88;;;6.80;100.00
62948;BME280;51940;52.126;-0.994;2023-02-13T10:02:07;102373.95;;;7.03;100.00
62948;BME280;51940;52.126;-0.994;2023-02-13T10:04:45;102377.97;;;7.08;100.00
62948;BME280;51940;52.126;-0.994;2023-02-13T10:10:01;102372.73;;;7.19;100.00
62948;BME280;51940;52.126;-0.994;2023-02-13T10:12:55;102369.27;;;7.24;100.00
62948;BME280;51940;52.126;-0.994;2023-02-13T10:18:28;102354.29;;;7.37;100.00
62948;BME280;51940;52.126;-0.994;2023-02-13T10:21:02;102356.67;;;7.42;100.00
62948;BME280;51940;52.126;-0.994;2023-02-13T10:23:35;102358.64;;;7.42;100.00
62948;BME280;51940;52.126;-0.994;2023-02-13T10:26:15;102357.11;;;7.45;100.00
62948;BME280;51940;52.126;-0.994;2023-02-13T10:28:48;102363.23;;;7.50;100.00
62948;BME280;51940;52.126;-0.994;2023-02-13T10:31:38;102359.81;;;7.56;100.00
62948;BME280;51940;52.126;-0.994;2023-02-13T10:34:09;102355.33;;;7.62;100.00
62948;BME280;51940;52.126;-0.994;2023-02-13T10:36:39;102356.52;;;7.69;100.00
62948;BME280;51940;52.126;-0.994;2023-02-13T10:41:52;102355.69;;;7.81;100.00
62948;BME280;51940;52.126;-0.994;2023-02-13T10:52:42;102357.80;;;8.10;100.00
62948;BME280;51940;52.126;-0.994;2023-02-13T10:55:54;102356.48;;;8.16;100.00
62948;BME280;51940;52.126;-0.994;2023-02-13T10:58:36;102354.55;;;8.17;100.00
62948;BME280;51940;52.126;-0.994;2023-02-13T11:03:37;102348.89;;;8.29;100.00
62948;BME280;51940;52.126;-0.994;2023-02-13T11:06:08;102349.54;;;8.35;100.00
62948;BME280;51940;52.126;-0.994;2023-02-13T11:08:42;102343.06;;;8.39;100.00
62948;BME280;51940;52.126;-0.994;2023-02-13T11:11:41;102343.81;;;8.43;100.00
62948;BME280;51940;52.126;-0.994;2023-02-13T11:16:58;102336.89;;;8.44;100.00
62948;BME280;51940;52.126;-0.994;2023-02-13T11:19:31;102333.47;;;8.40;100.00
62948;BME280;51940;52.126;-0.994;2023-02-13T11:22:02;102334.02;;;8.41;100.00
62948;BME280;51940;52.126;-0.994;2023-02-13T11:24:29;102333.01;;;8.45;100.00
62948;BME280;51940;52.126;-0.994;2023-02-13T11:27:01;102329.01;;;8.52;100.00
62948;BME280;51940;52.126;-0.994;2023-02-13T11:29:33;102327.54;;;8.60;100.00
62948;BME280;51940;52.126;-0.994;2023-02-13T11:32:17;102326.58;;;8.67;100.00
62948;BME280;51940;52.126;-0.994;2023-02-13T11:34:43;102325.66;;;8.77;100.00
62948;BME280;51940;52.126;-0.994;2023-02-13T11:37:20;102316.67;;;8.82;100.00
62948;BME280;51940;52.126;-0.994;2023-02-13T11:39:47;102315.82;;;8.87;100.00
62948;BME280;51940;52.126;-0.994;2023-02-13T11:42:24;102313.60;;;8.93;100.00
62948;BME280;51940;52.126;-0.994;2023-02-13T11:44:54;102313.00;;;9.00;100.00
62948;BME280;51940;52.126;-0.994;2023-02-13T11:47:36;102310.25;;;9.08;100.00
62948;BME280;51940;52.126;-0.994;2023-02-13T11:50:06;102310.70;;;9.16;100.00
62948;BME280;51940;52.126;-0.994;2023-02-13T11:52:44;102310.08;;;9.23;100.00
62948;BME280;51940;52.126;-0.994;2023-02-13T11:55:30;102303.19;;;9.28;100.00
62948;BME280;51940;52.126;-0.994;2023-02-13T12:00:36;102300.65;;;9.39;100.00
62948;BME280;51940;52.126;-0.994;2023-02-13T12:03:27;102298.59;;;9.46;100.00
62948;BME280;51940;52.126;-0.994;2023-02-13T12:06:14;102295.81;;;9.52;100.00
62948;BME280;51940;52.126;-0.994;2023-02-13T12:08:46;102288.05;;;9.59;100.00
62948;BME280;51940;52.126;-0.994;2023-02-13T12:11:28;102286.11;;;9.62;100.00
62948;BME280;51940;52.126;-0.994;2023-02-13T12:14:00;102282.05;;;9.65;100.00
62948;BME280;51940;52.126;-0.994;2023-02-13T12:19:38;102283.77;;;9.58;100.00
62948;BME280;51940;52.126;-0.994;2023-02-13T12:35:54;102272.02;;;9.58;100.00
62948;BME280;51940;52.126;-0.994;2023-02-13T12:43:36;102266.70;;;9.62;100.00
62948;BME280;51940;52.126;-0.994;2023-02-13T12:59:39;102259.23;;;9.64;100.00
62948;BME280;51940;52.126;-0.994;2023-02-13T13:04:59;102253.29;;;9.57;100.00
62948;BME280;51940;52.126;-0.994;2023-02-13T13:07:46;102247.55;;;9.55;100.00
62948;BME280;51940;52.126;-0.994;2023-02-13T13:23:21;102234.84;;;9.66;100.00
62948;BME280;51940;52.126;-0.994;2023-02-13T13:26:02;102228.77;;;9.65;100.00
62948;BME280;51940;52.126;-0.994;2023-02-13T13:28:38;102222.16;;;9.63;100.00
62948;BME280;51940;52.126;-0.994;2023-02-13T13:31:06;102221.63;;;9.63;100.00
62948;BME280;51940;52.126;-0.994;2023-02-13T13:33:32;102215.21;;;9.64;100.00
62948;BME280;51940;52.126;-0.994;2023-02-13T13:36:07;102209.70;;;9.65;100.00
62948;BME280;51940;52.126;-0.994;2023-02-13T13:41:34;102202.21;;;9.65;100.00
62948;BME280;51940;52.126;-0.994;2023-02-13T13:46:57;102198.48;;;9.64;100.00
62948;BME280;51940;52.126;-0.994;2023-02-13T13:49:36;102197.06;;;9.65;100.00
62948;BME280;51940;52.126;-0.994;2023-02-13T13:52:25;102189.97;;;9.66;100.00
62948;BME280;51940;52.126;-0.994;2023-02-13T13:54:52;102189.98;;;9.67;100.00
62948;BME280;51940;52.126;-0.994;2023-02-13T14:02:39;102189.02;;;9.62;100.00
62948;BME280;51940;52.126;-0.994;2023-02-13T14:05:30;102185.81;;;9.63;100.00
62948;BME280;51940;52.126;-0.994;2023-02-13T14:08:02;102182.42;;;9.62;100.00
62948;BME280;51940;52.126;-0.994;2023-02-13T14:18:21;102171.02;;;9.60;100.00
62948;BME280;51940;52.126;-0.994;2023-02-13T14:23:43;102163.18;;;9.60;100.00
62948;BME280;51940;52.126;-0.994;2023-02-13T14:31:27;102160.86;;;9.60;100.00
62948;BME280;51940;52.126;-0.994;2023-02-13T14:36:46;102156.21;;;9.57;100.00
62948;BME280;51940;52.126;-0.994;2023-02-13T14:39:26;102156.00;;;9.57;100.00
62948;BME280;51940;52.126;-0.994;2023-02-13T14:44:48;102157.78;;;9.56;100.00
62948;BME280;51940;52.126;-0.994;2023-02-13T14:49:58;102154.21;;;9.53;100.00
62948;BME280;51940;52.126;-0.994;2023-02-13T14:52:28;102150.27;;;9.52;100.00
62948;BME280;51940;52.126;-0.994;2023-02-13T14:55:03;102153.31;;;9.51;100.00
62948;BME280;51940;52.126;-0.994;2023-02-13T14:57:38;102154.02;;;9.51;100.00
62948;BME280;51940;52.126;-0.994;2023-02-13T15:02:52;102151.52;;;9.49;100.00
62948;BME280;51940;52.126;-0.994;2023-02-13T15:05:21;102154.14;;;9.48;100.00
62948;BME280;51940;52.126;-0.994;2023-02-13T15:08:20;102152.18;;;9.46;100.00
62948;BME280;51940;52.126;-0.994;2023-02-13T15:13:21;102146.83;;;9.44;100.00
62948;BME280;51940;52.126;-0.994;2023-02-13T15:16:02;102149.84;;;9.42;100.00
62948;BME280;51940;52.126;-0.994;2023-02-13T15:18:43;102150.88;;;9.39;100.00
62948;BME280;51940;52.126;-0.994;2023-02-13T15:21:14;102151.04;;;9.38;100.00
62948;BME280;51940;52.126;-0.994;2023-02-13T15:23:41;102153.34;;;9.35;100.00
62948;BME280;51940;52.126;-0.994;2023-02-13T15:26:07;102150.83;;;9.33;100.00
62948;BME280;51940;52.126;-0.994;2023-02-13T15:28:34;102149.20;;;9.31;100.00
62948;BME280;51940;52.126;-0.994;2023-02-13T15:31:02;102146.88;;;9.30;100.00
62948;BME280;51940;52.126;-0.994;2023-02-13T15:33:32;102149.17;;;9.28;100.00
62948;BME280;51940;52.126;-0.994;2023-02-13T15:36:00;102145.95;;;9.26;100.00